createdAt,value
2018-04-07T00:02:12.206Z,101696.04
2018-04-07T00:04:37.981Z,101697.77
2018-04-07T00:07:03.719Z,101691.66
2018-04-07T00:09:29.504Z,101691.20
2018-04-07T00:11:55.697Z,101686.38
2018-04-07T00:14:21.438Z,101684.61
2018-04-07T00:16:47.169Z,101689.84
2018-04-07T00:19:12.934Z,101686.80
2018-04-07T00:21:38.678Z,101682.39
2018-04-07T00:24:04.433Z,101675.81
2018-04-07T00:26:30.149Z,101675.80
2018-04-07T00:28:55.895Z,101676.25
2018-04-07T00:31:21.614Z,101679.32
2018-04-07T00:33:47.354Z,101671.41
2018-04-07T00:36:13.133Z,101661.75
2018-04-07T00:38:38.879Z,101662.23
2018-04-07T00:41:04.613Z,101665.30
2018-04-07T00:43:30.368Z,101662.66
2018-04-07T00:45:56.097Z,101664.44
2018-04-07T00:48:21.850Z,101656.09
2018-04-07T00:50:47.597Z,101655.65
2018-04-07T00:53:13.326Z,101651.28
2018-04-07T00:55:39.070Z,101656.13
2018-04-07T00:58:04.834Z,101663.13
2018-04-07T01:00:30.602Z,101656.99
2018-04-07T01:02:56.338Z,101654.81
2018-04-07T01:05:22.078Z,101657.44
2018-04-07T01:07:47.825Z,101656.14
2018-04-07T01:10:13.580Z,101652.64
2018-04-07T01:12:39.328Z,101650.02
2018-04-07T01:15:05.076Z,101650.02
2018-04-07T01:17:30.804Z,101652.21
2018-04-07T01:19:56.558Z,101652.67
2018-04-07T01:22:22.286Z,101644.33
2018-04-07T01:24:48.032Z,101637.31
2018-04-07T01:27:13.761Z,101631.23
2018-04-07T01:29:39.509Z,101632.11
2018-04-07T01:32:05.246Z,101630.36
2018-04-07T01:34:30.982Z,101627.29
2018-04-07T01:36:56.715Z,101629.05
2018-04-07T01:39:22.470Z,101630.39
2018-04-07T01:41:48.201Z,101621.17
2018-04-07T01:44:13.957Z,101620.74
2018-04-07T01:46:39.705Z,101618.09
2018-04-07T01:49:05.442Z,101619.85
2018-04-07T01:51:31.165Z,101611.09
2018-04-07T01:53:56.914Z,101611.53
2018-04-07T01:56:22.649Z,101606.25
2018-04-07T01:58:48.378Z,101608.91
2018-04-07T02:01:14.112Z,101603.64
2018-04-07T02:03:39.842Z,101604.94
2018-04-07T02:06:05.578Z,101606.70
2018-04-07T02:08:31.354Z,101601.45
2018-04-07T02:10:57.106Z,101598.80
2018-04-07T02:13:22.842Z,101599.68
2018-04-07T02:15:48.597Z,101600.14
2018-04-07T02:18:14.329Z,101598.83
2018-04-07T02:20:40.060Z,101602.75
2018-04-07T02:23:05.789Z,101598.80
2018-04-07T02:25:31.525Z,101593.55
2018-04-07T02:27:57.258Z,101595.73
2018-04-07T02:30:23.005Z,101602.29
2018-04-07T02:32:49.232Z,101605.38
2018-04-07T02:35:14.989Z,101618.95
2018-04-07T02:37:40.718Z,101617.20
2018-04-07T02:40:06.453Z,101616.33
2018-04-07T02:42:32.176Z,101620.70
2018-04-07T02:44:57.918Z,101622.01
2018-04-07T02:47:23.650Z,101615.01
2018-04-07T02:49:49.378Z,101620.23
2018-04-07T02:52:15.114Z,101624.66
2018-04-07T02:54:40.859Z,101629.02
2018-04-07T02:57:06.581Z,101621.11
2018-04-07T02:59:32.290Z,101618.91
2018-04-07T03:01:58.023Z,101616.73
2018-04-07T03:04:23.739Z,101614.52
2018-04-07T03:06:49.483Z,101610.98
2018-04-07T03:09:15.211Z,101620.66
2018-04-07T03:11:40.963Z,101620.66
2018-04-07T03:14:06.690Z,101614.95
2018-04-07T03:16:32.425Z,101612.30
2018-04-07T03:18:58.154Z,101607.94
2018-04-07T03:21:23.901Z,101604.87
2018-04-07T03:23:49.642Z,101608.83
2018-04-07T03:26:15.370Z,101605.31
2018-04-07T03:28:41.088Z,101603.98
2018-04-07T03:31:06.826Z,101592.11
2018-04-07T03:33:32.546Z,101592.53
2018-04-07T03:35:58.293Z,101585.56
2018-04-07T03:38:24.014Z,101577.66
2018-04-07T03:40:49.753Z,101574.15
2018-04-07T03:43:15.513Z,101571.52
2018-04-07T03:45:41.254Z,101567.97
2018-04-07T03:48:06.979Z,101576.73
2018-04-07T03:50:32.733Z,101577.20
2018-04-07T03:52:58.457Z,101582.84
2018-04-07T03:55:24.200Z,101583.70
2018-04-07T03:57:49.971Z,101582.87
2018-04-07T04:00:15.721Z,101585.48
2018-04-07T04:02:41.461Z,101573.19
2018-04-07T04:05:07.213Z,101574.02
2018-04-07T04:07:32.937Z,101566.63
2018-04-07T04:09:58.665Z,101560.05
2018-04-07T04:12:24.405Z,101555.25
2018-04-07T04:14:50.150Z,101549.56
2018-04-07T04:17:15.890Z,101530.30
2018-04-07T04:19:41.617Z,101528.56
2018-04-07T04:22:07.355Z,101524.17
2018-04-07T04:24:33.084Z,101526.82
2018-04-07T04:26:58.814Z,101516.72
2018-04-07T04:29:24.529Z,101512.38
2018-04-07T04:31:50.261Z,101520.27
2018-04-07T04:34:15.984Z,101520.28
2018-04-07T04:36:41.722Z,101519.79
2018-04-07T04:39:07.446Z,101520.26
2018-04-07T04:41:33.214Z,101510.15
2018-04-07T04:43:58.946Z,101511.48
2018-04-07T04:46:24.671Z,101507.97
2018-04-07T04:48:50.398Z,101508.84
2018-04-07T04:51:16.130Z,101496.61
2018-04-07T04:53:41.865Z,101492.23
2018-04-07T04:56:07.590Z,101487.81
2018-04-07T04:58:33.318Z,101487.39
2018-04-07T05:00:59.056Z,101485.23
2018-04-07T05:03:24.773Z,101479.96
2018-04-07T05:05:50.498Z,101477.34
2018-04-07T05:08:16.224Z,101479.12
2018-04-07T05:10:41.954Z,101473.88
2018-04-07T05:13:07.671Z,101467.74
2018-04-07T05:15:33.414Z,101465.56
2018-04-07T05:17:59.158Z,101460.76
2018-04-07T05:20:24.913Z,101451.99
2018-04-07T05:22:50.651Z,101452.41
2018-04-07T05:25:16.387Z,101451.55
2018-04-07T05:27:42.113Z,101449.38
2018-04-07T05:30:07.841Z,101451.55
2018-04-07T05:32:33.568Z,101442.81
2018-04-07T05:34:59.301Z,101441.04
2018-04-07T05:37:25.038Z,101441.48
2018-04-07T05:39:50.758Z,101442.35
2018-04-07T05:42:16.497Z,101446.31
2018-04-07T05:44:42.209Z,101434.92
2018-04-07T05:47:07.938Z,101428.78
2018-04-07T05:49:33.659Z,101434.05
2018-04-07T05:51:59.390Z,101430.09
2018-04-07T05:54:25.143Z,101420.89
2018-04-07T05:56:50.879Z,101420.88
2018-04-07T05:59:16.607Z,101428.31
2018-04-07T06:01:42.350Z,101423.52
2018-04-07T06:04:08.090Z,101430.07
2018-04-07T06:06:33.825Z,101426.57
2018-04-07T06:08:59.546Z,101423.03
2018-04-07T06:11:25.283Z,101419.97
2018-04-07T06:13:51.014Z,101416.87
2018-04-07T06:16:16.753Z,101414.22
2018-04-07T06:18:42.481Z,101404.97
2018-04-07T06:21:08.225Z,101411.11
2018-04-07T06:23:33.944Z,101412.82
2018-04-07T06:25:59.673Z,101405.29
2018-04-07T06:28:25.414Z,101416.67
2018-04-07T06:30:51.137Z,101400.36
2018-04-07T06:33:16.866Z,101410.91
2018-04-07T06:35:42.610Z,101409.16
2018-04-07T06:38:08.372Z,101402.95
2018-04-07T06:40:34.088Z,101417.41
2018-04-07T06:42:59.832Z,101409.92
2018-04-07T06:45:25.558Z,101412.59
2018-04-07T06:47:51.285Z,101416.56
2018-04-07T06:50:17.026Z,101419.63
2018-04-07T06:52:42.754Z,101416.51
2018-04-07T06:55:08.490Z,101419.51
2018-04-07T06:57:34.223Z,101407.11
2018-04-07T06:59:59.941Z,101415.78
2018-04-07T07:02:25.657Z,101408.29
2018-04-07T07:04:51.385Z,101396.86
2018-04-07T07:07:17.118Z,101397.26
2018-04-07T07:09:42.850Z,101398.88
2018-04-07T07:12:08.580Z,101391.72
2018-04-07T07:14:34.310Z,101384.68
2018-04-07T07:17:00.052Z,101383.28
2018-04-07T07:19:25.776Z,101379.59
2018-04-07T07:21:51.505Z,101382.62
2018-04-07T07:24:17.286Z,101366.63
2018-04-07T07:26:42.974Z,101357.20
2018-04-07T07:29:08.713Z,101354.84
2018-04-07T07:31:34.438Z,101339.63
2018-04-07T07:34:00.194Z,101339.55
2018-04-07T07:36:25.922Z,101343.11
2018-04-07T07:38:51.744Z,101336.48
2018-04-07T07:41:17.495Z,101340.12
2018-04-07T07:43:43.278Z,101337.26
2018-04-07T07:46:09.035Z,101332.86
2018-04-07T07:48:34.799Z,101336.28
2018-04-07T07:51:00.547Z,101331.44
2018-04-07T07:53:26.308Z,101328.58
2018-04-07T07:55:52.095Z,101333.59
2018-04-07T07:58:17.851Z,101318.69
2018-04-07T08:00:43.613Z,101320.97
2018-04-07T08:03:09.385Z,101324.94
2018-04-07T08:05:35.144Z,101318.27
2018-04-07T08:10:33.321Z,101307.77
2018-04-07T08:12:59.073Z,101304.31
2018-04-07T08:15:24.830Z,101304.23
2018-04-07T08:17:50.588Z,101300.36
2018-04-07T08:20:16.328Z,101296.44
2018-04-07T08:22:42.078Z,101294.37
2018-04-07T08:25:07.830Z,101275.97
2018-04-07T08:27:33.578Z,101276.12
2018-04-07T08:29:59.307Z,101280.36
2018-04-07T08:32:25.061Z,101278.81
2018-04-07T08:34:50.815Z,101285.65
2018-04-07T08:37:16.575Z,101285.86
2018-04-07T08:39:42.331Z,101282.58
2018-04-07T08:42:08.130Z,101276.42
2018-04-07T08:44:33.841Z,101278.42
2018-04-07T08:46:59.590Z,101280.28
2018-04-07T08:49:25.335Z,101272.53
2018-04-07T08:51:51.066Z,101282.02
2018-04-07T08:54:16.827Z,101277.42
2018-04-07T08:56:42.554Z,101273.73
2018-04-07T08:59:08.298Z,101261.66
2018-04-07T09:01:34.027Z,101272.75
2018-04-07T09:03:59.785Z,101260.84
2018-04-07T09:06:25.516Z,101259.61
2018-04-07T09:08:51.245Z,101259.45
2018-04-07T09:11:16.979Z,101258.68
2018-04-07T09:13:42.696Z,101259.31
2018-04-07T09:16:08.433Z,101253.55
2018-04-07T09:18:34.171Z,101244.70
2018-04-07T09:20:59.904Z,101245.58
2018-04-07T09:23:25.632Z,101244.50
2018-04-07T09:25:51.410Z,101241.95
2018-04-07T09:28:17.100Z,101229.57
2018-04-07T09:30:42.826Z,101230.88
2018-04-07T09:33:08.563Z,101221.76
2018-04-07T09:35:34.282Z,101222.45
2018-04-07T09:38:00.014Z,101222.77
2018-04-07T09:40:25.739Z,101222.42
2018-04-07T09:42:51.470Z,101214.45
2018-04-07T09:45:17.209Z,101218.15
2018-04-07T09:47:42.941Z,101212.02
2018-04-07T09:50:08.698Z,101210.17
2018-04-07T09:52:34.430Z,101207.73
2018-04-07T09:55:00.174Z,101214.66
2018-04-07T09:57:25.899Z,101208.73
2018-04-07T09:59:51.696Z,101205.19
2018-04-07T10:02:19.245Z,101210.25
2018-04-07T10:04:45.009Z,101206.13
2018-04-07T10:07:11.544Z,101199.45
2018-04-07T10:09:37.273Z,101203.75
2018-04-07T10:12:03.001Z,101208.70
2018-04-07T10:14:28.737Z,101204.59
2018-04-07T10:16:54.465Z,101209.13
2018-04-07T10:19:20.215Z,101200.70
2018-04-07T10:21:45.954Z,101210.63
2018-04-07T10:24:11.701Z,101205.25
2018-04-07T10:26:37.441Z,101199.84
2018-04-07T10:29:03.179Z,101207.57
2018-04-07T10:31:28.904Z,101203.83
2018-04-07T10:33:54.658Z,101190.75
2018-04-07T10:36:20.399Z,101188.35
2018-04-07T10:38:46.125Z,101181.22
2018-04-07T10:41:11.861Z,101174.14
2018-04-07T10:43:37.599Z,101178.19
2018-04-07T10:46:03.342Z,101176.52
2018-04-07T10:48:29.099Z,101169.65
2018-04-07T10:50:54.834Z,101159.85
2018-04-07T10:53:21.092Z,101168.33
2018-04-07T10:55:46.977Z,101165.88
2018-04-07T10:58:12.709Z,101167.28
2018-04-07T11:00:38.456Z,101157.36
2018-04-07T11:03:04.177Z,101158.36
2018-04-07T11:05:29.949Z,101162.24
2018-04-07T11:07:56.145Z,101157.98
2018-04-07T11:10:21.885Z,101161.39
2018-04-07T11:12:47.631Z,101153.35
2018-04-07T11:15:13.365Z,101150.70
2018-04-07T11:17:39.098Z,101150.00
2018-04-07T11:20:04.854Z,101144.08
2018-04-07T11:22:30.790Z,101140.03
2018-04-07T11:24:56.781Z,101140.77
2018-04-07T11:27:22.814Z,101127.72
2018-04-07T11:29:48.597Z,101128.81
2018-04-07T11:32:14.326Z,101126.06
2018-04-07T11:34:40.061Z,101118.23
2018-04-07T11:37:05.800Z,101119.00
2018-04-07T11:39:31.535Z,101117.91
2018-04-07T11:41:57.269Z,101116.91
2018-04-07T11:44:23.018Z,101117.53
2018-04-07T11:46:49.417Z,101111.12
2018-04-07T11:49:15.171Z,101114.70
2018-04-07T11:51:40.926Z,101106.09
2018-04-07T11:54:06.658Z,101104.48
2018-04-07T11:56:32.401Z,101097.25
2018-04-07T11:58:58.206Z,101096.62
2018-04-07T12:01:23.955Z,101094.55
2018-04-07T12:03:49.676Z,101093.28
2018-04-07T12:06:15.422Z,101087.45
2018-04-07T12:08:41.137Z,101095.94
2018-04-07T12:11:06.885Z,101092.08
2018-04-07T12:13:32.608Z,101097.66
2018-04-07T12:15:58.362Z,101095.31
2018-04-07T12:18:24.086Z,101089.55
2018-04-07T12:20:49.834Z,101084.30
2018-04-07T12:23:15.566Z,101077.52
2018-04-07T12:25:41.308Z,101078.70
2018-04-07T12:28:07.040Z,101069.41
2018-04-07T12:30:32.782Z,101064.23
2018-04-07T12:32:58.514Z,101063.88
2018-04-07T12:35:24.246Z,101060.63
2018-04-07T12:37:49.978Z,101059.19
2018-04-07T12:40:15.718Z,101051.16
2018-04-07T12:42:41.438Z,101056.16
2018-04-07T12:45:07.177Z,101051.63
2018-04-07T12:47:32.905Z,101056.11
2018-04-07T12:49:58.654Z,101045.40
2018-04-07T12:52:24.372Z,101042.54
2018-04-07T12:54:50.113Z,101045.38
2018-04-07T12:57:15.896Z,101037.09
2018-04-07T12:59:41.656Z,101038.55
2018-04-07T13:02:07.373Z,101039.30
2018-04-07T13:04:33.106Z,101038.34
2018-04-07T13:06:58.842Z,101032.76
2018-04-07T13:09:24.593Z,101029.55
2018-04-07T13:11:50.321Z,101026.39
2018-04-07T13:14:16.057Z,101022.29
2018-04-07T13:16:41.808Z,101024.56
2018-04-07T13:19:07.574Z,101023.11
2018-04-07T13:21:33.310Z,101028.66
2018-04-07T13:23:59.042Z,101019.00
2018-04-07T13:26:24.786Z,101017.11
2018-04-07T13:28:50.524Z,101023.96
2018-04-07T13:31:16.266Z,101013.75
2018-04-07T13:33:41.996Z,101008.24
2018-04-07T13:36:07.735Z,101013.97
2018-04-07T13:38:33.454Z,101011.70
2018-04-07T13:40:59.190Z,101012.98
2018-04-07T13:43:24.922Z,101012.45
2018-04-07T13:45:50.660Z,101017.38
2018-04-07T13:48:16.394Z,101002.63
2018-04-07T13:50:42.129Z,100997.02
2018-04-07T13:53:07.849Z,101000.41
2018-04-07T13:55:33.600Z,101001.22
2018-04-07T13:57:59.333Z,100999.35
2018-04-07T14:00:25.086Z,100998.02
2018-04-07T14:02:50.813Z,100996.81
2018-04-07T14:05:16.546Z,101001.51
2018-04-07T14:07:42.292Z,100995.05
2018-04-07T14:10:08.025Z,100987.36
2018-04-07T14:12:33.766Z,100990.21
2018-04-07T14:14:59.522Z,100986.41
2018-04-07T14:17:25.267Z,100986.17
2018-04-07T14:19:51.005Z,100990.24
2018-04-07T14:22:16.750Z,100990.40
2018-04-07T14:24:42.479Z,100992.72
2018-04-07T14:27:08.226Z,100988.36
2018-04-07T14:29:33.955Z,100985.13
2018-04-07T14:31:59.694Z,100979.93
2018-04-07T14:34:25.416Z,100969.06
2018-04-07T14:36:51.167Z,100971.83
2018-04-07T14:39:16.904Z,100975.69
2018-04-07T14:41:42.648Z,100972.15
2018-04-07T14:44:08.383Z,100972.19
2018-04-07T14:46:34.131Z,100968.93
2018-04-07T14:48:59.859Z,100963.34
2018-04-07T14:51:25.611Z,100963.32
2018-04-07T14:53:51.338Z,100962.34
2018-04-07T14:56:17.088Z,100961.79
2018-04-07T14:58:42.822Z,100964.45
2018-04-07T15:01:08.558Z,100958.67
2018-04-07T15:03:34.285Z,100952.79
2018-04-07T15:06:00.025Z,100953.77
2018-04-07T15:08:25.750Z,100954.95
2018-04-07T15:10:51.470Z,100951.66
2018-04-07T15:13:17.201Z,100952.42
2018-04-07T15:15:42.929Z,100952.20
2018-04-07T15:18:08.678Z,100948.63
2018-04-07T15:20:34.443Z,100953.28
2018-04-07T15:23:00.155Z,100949.34
2018-04-07T15:25:25.880Z,100944.74
2018-04-07T15:27:51.622Z,100942.92
2018-04-07T15:30:17.362Z,100938.45
2018-04-07T15:32:43.102Z,100939.89
2018-04-07T15:35:08.825Z,100939.03
2018-04-07T15:37:34.594Z,100937.88
2018-04-07T15:40:00.314Z,100934.27
2018-04-07T15:42:26.058Z,100932.09
2018-04-07T15:44:58.889Z,100932.73
2018-04-07T15:47:24.601Z,100931.53
2018-04-07T15:49:50.328Z,100920.50
2018-04-07T15:52:16.077Z,100916.39
2018-04-07T15:54:41.806Z,100913.34
2018-04-07T15:57:07.548Z,100926.30
2018-04-07T15:59:33.289Z,100915.50
2018-04-07T16:01:59.059Z,100912.35
2018-04-07T16:04:24.815Z,100916.69
2018-04-07T16:06:50.566Z,100921.51
2018-04-07T16:09:16.307Z,100912.65
2018-04-07T16:11:42.061Z,100911.48
2018-04-07T16:14:07.793Z,100906.55
2018-04-07T16:16:33.549Z,100905.72
2018-04-07T16:18:59.279Z,100911.76
2018-04-07T16:21:25.017Z,100905.55
2018-04-07T16:23:50.746Z,100903.30
2018-04-07T16:26:16.516Z,100899.78
2018-04-07T16:28:42.266Z,100902.06
2018-04-07T16:31:08.017Z,100898.61
2018-04-07T16:33:33.804Z,100892.48
2018-04-07T16:35:59.541Z,100890.36
2018-04-07T16:38:25.294Z,100895.16
2018-04-07T16:40:51.018Z,100897.50
2018-04-07T16:43:16.761Z,100889.91
2018-04-07T16:45:42.497Z,100890.15
2018-04-07T16:48:08.291Z,100894.27
2018-04-07T16:50:34.129Z,100897.41
2018-04-07T16:52:59.885Z,100896.67
2018-04-07T16:55:26.078Z,100895.96
2018-04-07T16:57:51.878Z,100896.34
2018-04-07T17:00:17.628Z,100894.13
2018-04-07T17:02:43.425Z,100898.03
2018-04-07T17:05:09.185Z,100907.19
2018-04-07T17:07:34.910Z,100900.05
2018-04-07T17:10:00.652Z,100903.80
2018-04-07T17:12:26.402Z,100897.65
2018-04-07T17:14:52.138Z,100887.80
2018-04-07T17:17:17.954Z,100891.31
2018-04-07T17:19:43.693Z,100894.59
2018-04-07T17:22:09.437Z,100901.87
2018-04-07T17:24:35.166Z,100899.30
2018-04-07T17:27:00.885Z,100896.48
2018-04-07T17:29:26.625Z,100890.16
2018-04-07T17:31:52.359Z,100894.18
2018-04-07T17:34:18.106Z,100892.53
2018-04-07T17:36:43.838Z,100884.89
2018-04-07T17:39:09.591Z,100879.06
2018-04-07T17:41:35.313Z,100887.78
2018-04-07T17:44:01.066Z,100891.93
2018-04-07T17:46:26.801Z,100898.70
2018-04-07T17:48:52.557Z,100890.67
2018-04-07T17:51:18.291Z,100897.11
2018-04-07T17:53:44.030Z,100890.16
2018-04-07T17:56:09.771Z,100887.78
2018-04-07T17:58:35.523Z,100890.41
2018-04-07T18:01:01.294Z,100887.83
2018-04-07T18:03:27.022Z,100888.28
2018-04-07T18:05:52.769Z,100886.27
2018-04-07T18:08:18.525Z,100881.23
2018-04-07T18:10:44.259Z,100880.73
2018-04-07T18:13:10.017Z,100878.18
2018-04-07T18:15:35.769Z,100875.73
2018-04-07T18:18:01.513Z,100884.03
2018-04-07T18:20:28.139Z,100884.37
2018-04-07T18:22:55.031Z,100883.61
2018-04-07T18:25:22.616Z,100887.06
2018-04-07T18:27:50.375Z,100888.55
2018-04-07T18:30:17.666Z,100888.17
2018-04-07T18:32:45.162Z,100898.09
2018-04-07T18:35:13.105Z,100890.33
2018-04-07T18:37:40.701Z,100891.02
2018-04-07T18:40:08.027Z,100894.95
2018-04-07T18:42:35.237Z,100894.86
2018-04-07T18:45:02.293Z,100891.37
2018-04-07T18:47:28.958Z,100887.39
2018-04-07T18:49:56.725Z,100888.23
2018-04-07T18:52:23.451Z,100892.14
2018-04-07T18:54:50.706Z,100888.34
2018-04-07T18:57:17.726Z,100896.24
2018-04-07T18:59:44.026Z,100896.36
2018-04-07T19:02:10.995Z,100901.42
2018-04-07T19:04:37.546Z,100895.70
2018-04-07T19:07:04.990Z,100896.41
2018-04-07T19:09:32.082Z,100899.02
2018-04-07T19:11:59.216Z,100897.48
2018-04-07T19:14:26.024Z,100901.57
2018-04-07T19:16:52.730Z,100914.56
2018-04-07T19:19:18.547Z,100904.48
2018-04-07T19:21:44.312Z,100908.53
2018-04-07T19:24:10.226Z,100911.25
2018-04-07T19:26:35.998Z,100920.16
2018-04-07T19:29:02.698Z,100919.72
2018-04-07T19:31:29.436Z,100929.66
2018-04-07T19:33:55.207Z,100928.23
2018-04-07T19:36:20.958Z,100926.75
2018-04-07T19:38:46.714Z,100931.27
2018-04-07T19:41:13.937Z,100917.19
2018-04-07T19:43:40.672Z,100925.92
2018-04-07T19:46:06.415Z,100929.91
2018-04-07T19:48:32.164Z,100926.71
2018-04-07T19:50:57.906Z,100929.02
2018-04-07T19:53:23.663Z,100924.79
2018-04-07T19:55:49.418Z,100923.07
2018-04-07T19:58:15.157Z,100917.71
2018-04-07T20:00:40.897Z,100915.55
2018-04-07T20:03:06.629Z,100917.97
2018-04-07T20:05:32.374Z,100918.36
2018-04-07T20:07:58.130Z,100912.80
2018-04-07T20:10:23.886Z,100920.18
2018-04-07T20:12:49.635Z,100913.25
2018-04-07T20:15:15.372Z,100916.44
2018-04-07T20:17:41.110Z,100913.09
2018-04-07T20:20:06.850Z,100906.80
2018-04-07T20:22:32.600Z,100913.98
2018-04-07T20:24:58.338Z,100907.30
2018-04-07T20:27:24.085Z,100907.66
2018-04-07T20:29:49.825Z,100911.08
2018-04-07T20:32:15.556Z,100910.58
2018-04-07T20:34:41.297Z,100903.34
2018-04-07T20:37:07.034Z,100900.57
2018-04-07T20:39:32.782Z,100900.39
2018-04-07T20:42:11.129Z,100901.37
2018-04-07T20:44:36.903Z,100904.31
2018-04-07T20:47:02.685Z,100896.80
2018-04-07T20:49:28.426Z,100897.55
2018-04-07T20:51:54.154Z,100899.32
2018-04-07T20:54:19.903Z,100896.67
2018-04-07T20:56:45.646Z,100890.94
2018-04-07T20:59:11.386Z,100888.37
2018-04-07T21:01:37.114Z,100884.30
2018-04-07T21:04:02.857Z,100876.73
2018-04-07T21:06:28.600Z,100880.66
2018-04-07T21:08:54.339Z,100878.55
2018-04-07T21:11:20.101Z,100878.70
2018-04-07T21:13:45.836Z,100875.81
2018-04-07T21:16:11.561Z,100876.16
2018-04-07T21:18:37.282Z,100863.30
2018-04-07T21:21:03.018Z,100868.78
2018-04-07T21:23:28.756Z,100863.98
2018-04-07T21:25:54.503Z,100859.82
2018-04-07T21:28:20.246Z,100864.77
2018-04-07T21:30:45.998Z,100862.95
2018-04-07T21:33:12.202Z,100853.44
2018-04-07T21:35:37.958Z,100853.83
2018-04-07T21:38:03.694Z,100856.61
2018-04-07T21:40:29.442Z,100852.83
2018-04-07T21:42:55.175Z,100853.58
2018-04-07T21:45:20.914Z,100848.73
2018-04-07T21:47:46.650Z,100847.45
2018-04-07T21:50:12.414Z,100847.59
2018-04-07T21:52:38.164Z,100844.37
2018-04-07T21:55:04.406Z,100847.63
2018-04-07T21:57:30.146Z,100846.48
2018-04-07T21:59:55.896Z,100849.66
2018-04-07T22:02:22.137Z,100851.20
2018-04-07T22:04:47.887Z,100845.94
2018-04-07T22:07:13.854Z,100847.50
2018-04-07T22:09:39.906Z,100838.19
2018-04-07T22:12:05.670Z,100843.57
2018-04-07T22:14:31.421Z,100840.40
2018-04-07T22:16:57.219Z,100843.27
2018-04-07T22:19:23.002Z,100845.14
2018-04-07T22:21:48.758Z,100842.91
2018-04-07T22:24:15.618Z,100841.16
2018-04-07T22:26:41.374Z,100842.77
2018-04-07T22:29:07.101Z,100844.28
2018-04-07T22:31:32.898Z,100842.10
2018-04-07T22:33:58.641Z,100837.28
2018-04-07T22:36:26.817Z,100837.13
2018-04-07T22:38:52.586Z,100831.00
2018-04-07T22:41:18.323Z,100827.95
2018-04-07T22:43:44.064Z,100828.57
2018-04-07T22:46:09.806Z,100834.45
2018-04-07T22:48:35.538Z,100831.41
2018-04-07T22:51:01.266Z,100827.61
2018-04-07T22:53:27.014Z,100826.55
2018-04-07T22:55:52.755Z,100824.16
2018-04-07T22:58:18.494Z,100826.98
2018-04-07T23:00:44.231Z,100819.62
2018-04-07T23:03:09.959Z,100823.23
2018-04-07T23:05:35.699Z,100817.77
2018-04-07T23:08:01.435Z,100819.36
2018-04-07T23:10:27.195Z,100813.88
2018-04-07T23:12:52.930Z,100816.61
2018-04-07T23:15:18.672Z,100813.79
2018-04-07T23:17:44.444Z,100809.69
2018-04-07T23:20:10.178Z,100805.98
2018-04-07T23:22:36.013Z,100806.87
2018-04-07T23:25:01.773Z,100804.22
2018-04-07T23:27:27.825Z,100803.03
2018-04-07T23:29:54.037Z,100804.44
2018-04-07T23:32:19.789Z,100803.64
2018-04-07T23:34:45.541Z,100798.70
2018-04-07T23:37:11.283Z,100803.44
2018-04-07T23:39:37.010Z,100799.32
2018-04-07T23:42:02.752Z,100800.25
2018-04-07T23:44:28.697Z,100799.57
2018-04-07T23:46:54.555Z,100794.92
2018-04-07T23:49:20.297Z,100797.20
2018-04-07T23:51:46.050Z,100791.67
2018-04-07T23:54:11.790Z,100796.23
2018-04-07T23:56:37.542Z,100803.80
2018-04-07T23:59:03.291Z,100806.64
